createdAt,value
2018-12-18T00:01:06.578Z,9.80
2018-12-18T00:02:50.936Z,10.23
2018-12-18T00:04:29.970Z,9.67
2018-12-18T00:06:09.880Z,13.93
2018-12-18T00:07:46.477Z,10.00
2018-12-18T00:09:23.105Z,12.00
2018-12-18T00:11:04.001Z,13.17
2018-12-18T00:12:40.748Z,10.43
2018-12-18T00:14:16.830Z,10.90
2018-12-18T00:15:53.412Z,12.37
2018-12-18T00:17:30.363Z,9.10
2018-12-18T00:19:08.511Z,8.80
2018-12-18T00:20:46.296Z,7.47
2018-12-18T00:22:21.955Z,10.60
2018-12-18T00:23:59.529Z,7.77
2018-12-18T00:25:37.096Z,10.37
2018-12-18T00:27:13.664Z,7.07
2018-12-18T00:28:49.763Z,7.80
2018-12-18T00:30:26.005Z,8.20
2018-12-18T00:32:03.267Z,6.47
2018-12-18T00:33:46.031Z,7.27
2018-12-18T00:35:19.767Z,6.70
2018-12-18T00:36:55.290Z,7.07
2018-12-18T00:38:30.782Z,5.90
2018-12-18T00:40:06.892Z,3.87
2018-12-18T00:41:42.945Z,4.97
2018-12-18T00:43:18.693Z,6.17
2018-12-18T00:44:54.071Z,4.80
2018-12-18T00:46:29.090Z,4.97
2018-12-18T00:48:04.790Z,6.00
2018-12-18T00:49:40.173Z,9.00
2018-12-18T00:51:16.595Z,6.80
2018-12-18T00:52:51.700Z,6.67
2018-12-18T00:54:26.653Z,4.40
2018-12-18T00:56:01.798Z,6.67
2018-12-18T00:57:36.823Z,5.47
2018-12-18T00:59:12.026Z,4.67
2018-12-18T01:00:47.013Z,7.03
2018-12-18T01:02:23.405Z,6.23
2018-12-18T01:03:58.481Z,7.57
2018-12-18T01:05:33.675Z,4.53
2018-12-18T01:07:09.705Z,4.00
2018-12-18T01:08:45.955Z,4.10
2018-12-18T01:10:21.053Z,6.37
2018-12-18T01:11:55.972Z,5.07
2018-12-18T01:13:30.996Z,5.13
2018-12-18T01:15:06.084Z,4.13
2018-12-18T01:16:41.014Z,4.97
2018-12-18T01:18:16.093Z,5.27
2018-12-18T01:19:51.023Z,5.90
2018-12-18T01:21:25.965Z,7.07
2018-12-18T01:23:01.187Z,5.33
2018-12-18T01:24:36.173Z,3.13
2018-12-18T01:26:11.301Z,4.30
2018-12-18T01:27:46.374Z,5.67
2018-12-18T01:29:21.320Z,5.77
2018-12-18T01:30:56.248Z,4.77
2018-12-18T01:32:31.266Z,8.07
2018-12-18T01:34:06.419Z,7.90
2018-12-18T01:35:41.435Z,7.47
2018-12-18T01:37:16.593Z,5.30
2018-12-18T01:38:52.089Z,8.07
2018-12-18T01:40:29.367Z,7.10
2018-12-18T01:42:04.438Z,6.23
2018-12-18T01:43:39.694Z,7.50
2018-12-18T01:45:14.733Z,5.43
2018-12-18T01:46:49.953Z,9.10
2018-12-18T01:48:25.832Z,6.30
2018-12-18T01:50:01.066Z,5.27
2018-12-18T01:51:36.164Z,9.93
2018-12-18T01:53:11.554Z,5.97
2018-12-18T01:54:46.751Z,6.87
2018-12-18T01:56:21.856Z,5.60
2018-12-18T01:57:57.096Z,6.00
2018-12-18T01:59:32.285Z,8.97
2018-12-18T02:01:07.152Z,8.57
2018-12-18T02:02:42.511Z,7.30
2018-12-18T02:04:19.032Z,5.30
2018-12-18T02:05:54.282Z,6.87
2018-12-18T02:07:29.397Z,7.60
2018-12-18T02:09:06.766Z,7.67
2018-12-18T02:10:43.865Z,7.10
2018-12-18T02:12:18.802Z,6.90
2018-12-18T02:13:54.764Z,8.50
2018-12-18T02:15:29.834Z,6.77
2018-12-18T02:17:05.055Z,8.10
2018-12-18T02:18:40.071Z,10.27
2018-12-18T02:20:15.300Z,9.77
2018-12-18T02:21:50.291Z,9.70
2018-12-18T02:23:25.391Z,9.63
2018-12-18T02:25:00.658Z,6.83
2018-12-18T02:26:35.851Z,10.80
2018-12-18T02:28:10.887Z,6.43
2018-12-18T02:29:46.187Z,7.63
2018-12-18T02:31:21.794Z,8.80
2018-12-18T02:32:56.834Z,7.10
2018-12-18T02:34:31.846Z,7.83
2018-12-18T02:36:07.071Z,13.37
2018-12-18T02:37:42.079Z,6.77
2018-12-18T02:39:17.620Z,13.10
2018-12-18T02:40:53.699Z,9.63
2018-12-18T02:42:28.685Z,6.23
2018-12-18T02:44:03.886Z,6.33
2018-12-18T02:45:38.996Z,11.27
2018-12-18T02:47:14.070Z,9.80
2018-12-18T02:48:49.074Z,8.33
2018-12-18T02:50:24.153Z,7.73
2018-12-18T02:51:59.335Z,6.93
2018-12-18T02:53:34.404Z,10.67
2018-12-18T02:55:09.829Z,8.63
2018-12-18T02:56:45.033Z,8.23
2018-12-18T02:58:20.175Z,9.40
2018-12-18T02:59:55.528Z,13.97
2018-12-18T03:01:30.742Z,10.10
2018-12-18T03:03:06.885Z,7.97
2018-12-18T03:04:42.953Z,7.47
2018-12-18T03:06:18.169Z,7.80
2018-12-18T03:07:54.844Z,8.63
2018-12-18T03:09:30.093Z,13.97
2018-12-18T03:11:06.512Z,8.60
2018-12-18T03:12:41.490Z,11.23
2018-12-18T03:14:18.775Z,7.93
2018-12-18T03:15:53.822Z,10.33
2018-12-18T03:17:28.791Z,10.43
2018-12-18T03:19:04.325Z,8.20
2018-12-18T03:20:39.267Z,8.23
2018-12-18T03:22:14.345Z,9.67
2018-12-18T03:23:49.428Z,9.37
2018-12-18T03:25:25.391Z,12.20
2018-12-18T03:27:00.616Z,9.60
2018-12-18T03:28:35.662Z,10.37
2018-12-18T03:30:11.625Z,10.47
2018-12-18T03:31:50.704Z,10.67
2018-12-18T03:33:25.908Z,9.00
2018-12-18T03:35:01.830Z,9.63
2018-12-18T03:36:36.750Z,7.60
2018-12-18T03:38:11.791Z,10.10
2018-12-18T03:39:47.277Z,8.43
2018-12-18T03:41:22.206Z,8.87
2018-12-18T03:42:57.184Z,8.73
2018-12-18T03:44:32.224Z,7.33
2018-12-18T03:46:07.408Z,8.83
2018-12-18T03:47:42.369Z,8.60
2018-12-18T03:49:17.416Z,9.53
2018-12-18T03:50:53.229Z,12.70
2018-12-18T03:52:28.789Z,8.57
2018-12-18T03:54:03.943Z,9.70
2018-12-18T03:55:39.260Z,8.87
2018-12-18T03:57:14.383Z,12.73
2018-12-18T03:58:49.610Z,9.47
2018-12-18T04:00:25.002Z,8.50
2018-12-18T04:02:00.171Z,12.27
2018-12-18T04:03:35.364Z,8.57
2018-12-18T04:05:10.615Z,8.37
2018-12-18T04:06:45.551Z,9.70
2018-12-18T04:08:21.632Z,7.50
2018-12-18T04:09:57.095Z,9.83
2018-12-18T04:11:32.580Z,7.77
2018-12-18T04:13:07.556Z,10.90
2018-12-18T04:14:43.475Z,10.40
2018-12-18T04:16:19.507Z,14.17
2018-12-18T04:17:54.719Z,8.70
2018-12-18T04:19:29.866Z,8.17
2018-12-18T04:21:05.185Z,7.70
2018-12-18T04:22:40.379Z,6.60
2018-12-18T04:24:15.629Z,7.80
2018-12-18T04:25:54.733Z,8.73
2018-12-18T04:27:29.724Z,11.30
2018-12-18T04:29:04.915Z,9.23
2018-12-18T04:30:40.452Z,7.40
2018-12-18T04:32:15.551Z,6.43
2018-12-18T04:33:53.149Z,10.43
2018-12-18T04:35:29.465Z,10.30
2018-12-18T04:37:04.537Z,9.37
2018-12-18T04:38:39.790Z,7.83
2018-12-18T04:40:15.752Z,15.10
2018-12-18T04:41:51.607Z,7.67
2018-12-18T04:43:26.522Z,11.00
2018-12-18T04:45:01.510Z,6.70
2018-12-18T04:46:37.374Z,6.90
2018-12-18T04:48:12.376Z,6.53
2018-12-18T04:49:47.515Z,6.63
2018-12-18T04:51:23.091Z,9.67
2018-12-18T04:52:58.941Z,9.50
2018-12-18T04:54:34.041Z,6.67
2018-12-18T04:56:09.379Z,8.53
2018-12-18T04:57:44.397Z,9.80
2018-12-18T04:59:19.432Z,10.47
2018-12-18T05:00:54.408Z,7.77
2018-12-18T05:02:29.525Z,6.73
2018-12-18T05:04:05.049Z,8.97
2018-12-18T05:05:40.497Z,6.87
2018-12-18T05:07:15.509Z,9.03
2018-12-18T05:08:51.600Z,7.07
2018-12-18T05:10:26.685Z,9.50
2018-12-18T05:12:02.050Z,6.80
2018-12-18T05:13:37.144Z,7.77
2018-12-18T05:15:12.206Z,9.90
2018-12-18T05:16:48.777Z,7.57
2018-12-18T05:18:23.829Z,5.20
2018-12-18T05:19:58.994Z,6.10
2018-12-18T05:21:34.204Z,8.33
2018-12-18T05:23:10.350Z,8.37
2018-12-18T05:24:45.349Z,7.63
2018-12-18T05:26:21.170Z,7.10
2018-12-18T05:27:56.795Z,7.93
2018-12-18T05:29:31.766Z,7.70
2018-12-18T05:31:08.437Z,6.37
2018-12-18T05:32:43.634Z,8.23
2018-12-18T05:34:18.687Z,5.93
2018-12-18T05:35:53.852Z,5.57
2018-12-18T05:37:29.428Z,5.70
2018-12-18T05:39:07.854Z,4.60
2018-12-18T05:40:42.764Z,4.93
2018-12-18T05:42:18.631Z,4.80
2018-12-18T05:43:53.740Z,7.10
2018-12-18T05:45:28.752Z,4.07
2018-12-18T05:47:03.990Z,6.13
2018-12-18T05:48:38.914Z,8.43
2018-12-18T05:50:15.635Z,8.53
2018-12-18T05:51:51.502Z,7.93
2018-12-18T05:53:26.411Z,8.70
2018-12-18T05:55:01.431Z,8.77
2018-12-18T05:56:36.655Z,8.20
2018-12-18T05:58:12.251Z,12.33
2018-12-18T05:59:48.241Z,6.57
2018-12-18T06:01:23.273Z,4.53
2018-12-18T06:02:59.004Z,4.60
2018-12-18T06:04:34.380Z,4.70
2018-12-18T06:06:09.424Z,6.10
2018-12-18T06:07:44.716Z,7.70
2018-12-18T06:09:20.437Z,7.43
2018-12-18T06:10:55.518Z,4.43
2018-12-18T06:12:30.908Z,6.47
2018-12-18T06:14:06.994Z,5.00
2018-12-18T06:15:41.901Z,9.60
2018-12-18T06:17:16.818Z,8.13
2018-12-18T06:18:51.778Z,15.57
2018-12-18T06:20:27.047Z,5.97
2018-12-18T06:22:02.388Z,10.10
2018-12-18T06:23:37.255Z,7.27
2018-12-18T06:25:12.290Z,8.47
2018-12-18T06:26:48.463Z,9.27
2018-12-18T06:28:23.391Z,8.00
2018-12-18T06:29:58.741Z,13.00
2018-12-18T06:31:33.918Z,7.10
2018-12-18T06:33:08.843Z,15.00
2018-12-18T06:34:43.935Z,8.07
2018-12-18T06:36:19.100Z,9.90
2018-12-18T06:37:55.256Z,10.03
2018-12-18T06:39:30.189Z,7.40
2018-12-18T06:41:05.242Z,5.60
2018-12-18T06:42:41.539Z,17.13
2018-12-18T06:44:17.597Z,8.50
2018-12-18T06:45:52.466Z,8.00
2018-12-18T06:47:28.270Z,10.73
2018-12-18T06:49:04.460Z,8.10
2018-12-18T06:50:39.518Z,7.03
2018-12-18T06:52:15.696Z,8.17
2018-12-18T06:53:50.643Z,7.37
2018-12-18T06:55:34.290Z,6.00
2018-12-18T06:57:09.464Z,8.23
2018-12-18T06:58:45.205Z,11.50
2018-12-18T07:00:20.231Z,8.33
2018-12-18T07:01:55.976Z,5.70
2018-12-18T07:03:31.419Z,7.87
2018-12-18T07:05:08.008Z,7.70
2018-12-18T07:06:43.895Z,7.00
2018-12-18T07:08:18.913Z,6.00
2018-12-18T07:09:54.523Z,9.67
2018-12-18T07:11:29.495Z,11.30
2018-12-18T07:13:04.686Z,10.37
2018-12-18T07:14:39.706Z,6.93
2018-12-18T07:16:14.666Z,5.50
2018-12-18T07:17:49.862Z,14.10
2018-12-18T07:19:24.766Z,10.97
2018-12-18T07:20:59.772Z,7.27
2018-12-18T07:22:35.281Z,8.97
2018-12-18T07:24:14.106Z,10.57
2018-12-18T07:25:48.477Z,7.77
2018-12-18T07:27:23.772Z,7.33
2018-12-18T07:28:58.929Z,11.93
2018-12-18T07:30:35.265Z,7.57
2018-12-18T07:32:11.161Z,11.07
2018-12-18T07:33:46.421Z,7.17
2018-12-18T07:35:23.439Z,7.03
2018-12-18T07:36:59.990Z,6.53
2018-12-18T07:38:36.442Z,13.63
2018-12-18T07:40:11.818Z,9.10
2018-12-18T07:41:47.557Z,8.60
2018-12-18T07:43:22.491Z,12.17
2018-12-18T07:44:58.678Z,6.20
2018-12-18T07:46:34.692Z,13.30
2018-12-18T07:48:09.689Z,9.20
2018-12-18T07:49:44.911Z,7.30
2018-12-18T07:51:20.135Z,7.97
2018-12-18T07:52:56.377Z,8.13
2018-12-18T07:54:31.289Z,7.87
2018-12-18T07:56:06.192Z,8.00
2018-12-18T07:57:42.533Z,4.97
2018-12-18T07:59:17.544Z,7.00
2018-12-18T08:00:54.765Z,7.83
2018-12-18T08:02:29.609Z,9.20
2018-12-18T08:04:05.473Z,8.93
2018-12-18T08:05:41.037Z,8.13
2018-12-18T08:07:16.021Z,4.50
2018-12-18T08:08:52.608Z,8.17
2018-12-18T08:10:28.622Z,8.33
2018-12-18T08:12:04.106Z,5.93
2018-12-18T08:13:39.148Z,7.60
2018-12-18T08:15:15.386Z,5.90
2018-12-18T08:16:51.142Z,9.63
2018-12-18T08:18:26.495Z,11.83
2018-12-18T08:20:01.706Z,6.50
2018-12-18T08:21:38.088Z,10.70
2018-12-18T08:23:14.867Z,5.37
2018-12-18T08:24:51.510Z,11.20
2018-12-18T08:26:27.515Z,9.30
2018-12-18T08:28:02.707Z,4.87
2018-12-18T08:29:37.682Z,7.07
2018-12-18T08:31:14.074Z,7.30
2018-12-18T08:32:49.529Z,6.47
2018-12-18T08:34:24.865Z,7.03
2018-12-18T08:36:01.056Z,4.63
2018-12-18T08:37:36.029Z,4.67
2018-12-18T08:39:11.332Z,4.20
2018-12-18T08:40:46.830Z,6.40
2018-12-18T08:42:22.394Z,4.20
2018-12-18T08:43:58.663Z,9.33
2018-12-18T08:45:33.755Z,7.23
2018-12-18T08:47:08.707Z,4.73
2018-12-18T08:48:46.003Z,5.07
2018-12-18T08:50:21.384Z,4.37
2018-12-18T08:51:56.553Z,5.23
2018-12-18T08:53:31.693Z,8.00
2018-12-18T08:55:07.308Z,7.30
2018-12-18T08:56:42.789Z,5.60
2018-12-18T08:58:19.178Z,6.40
2018-12-18T08:59:54.095Z,5.33
2018-12-18T09:01:29.299Z,4.67
2018-12-18T09:03:04.776Z,3.80
2018-12-18T09:04:40.163Z,5.63
2018-12-18T09:06:15.245Z,8.47
2018-12-18T09:07:50.630Z,7.73
2018-12-18T09:09:26.572Z,5.07
2018-12-18T09:11:01.734Z,4.83
2018-12-18T09:12:37.864Z,7.87
2018-12-18T09:14:13.122Z,5.43
2018-12-18T09:15:54.262Z,9.47
2018-12-18T09:17:34.634Z,7.50
2018-12-18T09:19:09.895Z,4.90
2018-12-18T09:20:45.479Z,5.90
2018-12-18T09:22:20.525Z,5.87
2018-12-18T09:23:56.393Z,8.67
2018-12-18T09:25:31.446Z,7.17
2018-12-18T09:27:06.991Z,5.97
2018-12-18T09:28:42.221Z,4.83
2018-12-18T09:30:17.423Z,5.67
2018-12-18T09:31:52.793Z,4.83
2018-12-18T09:33:28.453Z,4.30
2018-12-18T09:35:03.846Z,5.83
2018-12-18T09:36:39.439Z,10.90
2018-12-18T09:38:19.884Z,4.03
2018-12-18T09:39:54.962Z,6.53
2018-12-18T09:41:34.026Z,3.30
2018-12-18T09:43:14.305Z,3.17
2018-12-18T09:44:49.359Z,8.17
2018-12-18T09:46:25.212Z,6.37
2018-12-18T09:48:02.099Z,3.97
2018-12-18T09:49:37.335Z,2.37
2018-12-18T09:51:13.054Z,2.67
2018-12-18T09:52:47.957Z,2.20
2018-12-18T09:54:23.345Z,2.50
2018-12-18T09:55:58.372Z,5.17
2018-12-18T09:57:39.853Z,2.73
2018-12-18T09:59:15.035Z,3.53
2018-12-18T10:00:51.228Z,7.60
2018-12-18T10:02:26.789Z,3.17
2018-12-18T10:04:01.984Z,5.17
2018-12-18T10:05:37.029Z,5.17
2018-12-18T10:07:11.989Z,5.80
2018-12-18T10:08:47.094Z,3.30
2018-12-18T10:10:23.144Z,4.70
2018-12-18T10:11:58.437Z,6.60
2018-12-18T10:13:34.209Z,4.00
2018-12-18T10:15:12.284Z,3.57
2018-12-18T10:16:47.302Z,4.83
2018-12-18T10:18:22.465Z,7.30
2018-12-18T10:19:57.625Z,4.30
2018-12-18T10:21:33.464Z,3.97
2018-12-18T10:23:08.341Z,3.27
2018-12-18T10:24:43.874Z,5.27
2018-12-18T10:26:18.961Z,3.00
2018-12-18T10:27:54.210Z,4.37
2018-12-18T10:29:29.959Z,4.77
2018-12-18T10:31:04.988Z,7.83
2018-12-18T10:32:41.593Z,4.13
2018-12-18T10:34:17.661Z,3.87
2018-12-18T10:35:52.612Z,4.77
2018-12-18T10:37:28.379Z,6.23
2018-12-18T10:39:05.333Z,4.43
2018-12-18T10:40:44.118Z,5.53
2018-12-18T10:42:21.185Z,5.07
2018-12-18T10:43:57.869Z,4.43
2018-12-18T10:45:34.105Z,4.30
2018-12-18T10:47:09.309Z,4.90
2018-12-18T10:48:44.370Z,3.63
2018-12-18T10:50:20.182Z,4.23
2018-12-18T10:51:55.106Z,5.20
2018-12-18T10:53:30.849Z,8.07
2018-12-18T10:55:06.820Z,4.13
2018-12-18T10:56:42.081Z,4.67
2018-12-18T10:58:23.813Z,3.77
2018-12-18T10:59:54.177Z,5.27
2018-12-18T11:01:34.426Z,5.97
2018-12-18T11:03:10.966Z,5.10
2018-12-18T11:04:46.818Z,4.97
2018-12-18T11:06:22.055Z,5.13
2018-12-18T11:07:57.897Z,5.17
2018-12-18T11:09:32.805Z,4.43
2018-12-18T11:11:07.789Z,5.80
2018-12-18T11:12:47.305Z,4.60
2018-12-18T11:14:23.407Z,4.87
2018-12-18T11:15:59.017Z,5.70
2018-12-18T11:17:34.168Z,4.47
2018-12-18T11:19:09.111Z,4.47
2018-12-18T11:20:44.743Z,4.57
2018-12-18T11:22:19.696Z,11.30
2018-12-18T11:23:55.131Z,8.00
2018-12-18T11:25:30.862Z,5.13
2018-12-18T11:27:06.874Z,5.27
2018-12-18T11:28:42.180Z,5.50
2018-12-18T11:30:17.611Z,6.00
2018-12-18T11:31:52.889Z,6.20
2018-12-18T11:33:27.954Z,4.57
2018-12-18T11:35:02.910Z,7.37
2018-12-18T11:36:38.703Z,5.70
2018-12-18T11:38:14.135Z,9.83
2018-12-18T11:39:49.058Z,6.80
2018-12-18T11:41:24.328Z,5.30
2018-12-18T11:42:59.290Z,8.40
2018-12-18T11:44:34.358Z,14.90
2018-12-18T11:46:10.341Z,6.37
2018-12-18T11:47:45.421Z,11.13
2018-12-18T11:49:20.321Z,11.03
2018-12-18T11:50:56.266Z,4.50
2018-12-18T11:52:31.313Z,9.53
2018-12-18T11:54:06.286Z,5.83
2018-12-18T11:55:41.850Z,9.00
2018-12-18T11:57:16.934Z,6.37
2018-12-18T11:58:51.929Z,6.40
2018-12-18T12:00:27.188Z,6.37
2018-12-18T12:02:02.351Z,13.47
2018-12-18T12:03:37.292Z,7.03
2018-12-18T12:05:15.911Z,10.37
2018-12-18T12:06:51.173Z,9.60
2018-12-18T12:08:26.288Z,8.23
2018-12-18T12:10:01.328Z,8.27
2018-12-18T12:11:37.656Z,5.77
2018-12-18T12:13:12.670Z,7.37
2018-12-18T12:14:48.007Z,5.70
2018-12-18T12:16:23.046Z,7.27
2018-12-18T12:17:58.262Z,7.87
2018-12-18T12:19:33.616Z,7.60
2018-12-18T12:21:08.844Z,7.60
2018-12-18T12:22:43.984Z,13.10
2018-12-18T12:24:19.498Z,11.50
2018-12-18T12:25:55.441Z,12.80
2018-12-18T12:27:36.111Z,7.70
2018-12-18T12:29:11.829Z,10.07
2018-12-18T12:30:46.869Z,10.67
2018-12-18T12:32:21.882Z,11.93
2018-12-18T12:33:56.787Z,7.27
2018-12-18T12:35:31.815Z,9.70
2018-12-18T12:37:07.094Z,9.07
2018-12-18T12:38:43.807Z,8.10
2018-12-18T12:40:19.586Z,10.77
2018-12-18T12:41:54.785Z,9.13
2018-12-18T12:43:30.675Z,12.00
2018-12-18T12:45:06.339Z,10.83
2018-12-18T12:46:41.346Z,9.03
2018-12-18T12:48:18.534Z,8.27
2018-12-18T12:49:54.382Z,7.87
2018-12-18T12:51:30.517Z,13.77
2018-12-18T12:53:05.759Z,11.33
2018-12-18T12:54:40.726Z,10.67
2018-12-18T12:56:16.016Z,6.77
2018-12-18T12:57:52.146Z,8.00
2018-12-18T12:59:27.010Z,11.03
2018-12-18T13:01:02.223Z,8.50
2018-12-18T13:02:37.889Z,8.43
2018-12-18T13:04:13.198Z,8.07
2018-12-18T13:05:48.171Z,7.43
2018-12-18T13:07:24.166Z,10.07
2018-12-18T13:08:59.083Z,10.20
2018-12-18T13:10:35.070Z,7.53
2018-12-18T13:12:10.490Z,6.67
2018-12-18T13:13:45.424Z,7.53
2018-12-18T13:15:21.732Z,7.53
2018-12-18T13:16:58.662Z,10.53
2018-12-18T13:18:33.647Z,6.67
2018-12-18T13:20:09.545Z,6.17
2018-12-18T13:21:44.604Z,6.73
2018-12-18T13:23:19.543Z,6.23
2018-12-18T13:24:54.428Z,8.97
2018-12-18T13:26:30.236Z,4.87
2018-12-18T13:28:05.384Z,9.63
2018-12-18T13:29:40.553Z,8.57
2018-12-18T13:31:15.823Z,7.07
2018-12-18T13:32:51.304Z,6.83
2018-12-18T13:34:26.269Z,7.90
2018-12-18T13:36:01.214Z,7.30
2018-12-18T13:37:37.249Z,11.60
2018-12-18T13:39:12.504Z,6.93
2018-12-18T13:40:47.583Z,8.83
2018-12-18T13:42:22.627Z,14.57
2018-12-18T13:43:57.562Z,17.57
2018-12-18T13:45:32.732Z,16.43
2018-12-18T13:47:07.980Z,11.63
2018-12-18T13:48:42.877Z,11.73
2018-12-18T13:50:17.952Z,13.60
2018-12-18T13:51:53.296Z,9.83
2018-12-18T13:53:28.336Z,10.20
2018-12-18T13:55:05.231Z,7.03
2018-12-18T13:56:40.520Z,8.57
2018-12-18T13:58:16.065Z,16.33
2018-12-18T13:59:51.315Z,12.17
2018-12-18T14:01:26.266Z,11.97
2018-12-18T14:03:01.305Z,11.23
2018-12-18T14:04:36.175Z,9.70
2018-12-18T14:06:11.047Z,6.90
2018-12-18T14:07:47.241Z,12.37
2018-12-18T14:09:22.148Z,8.80
2018-12-18T14:10:57.059Z,6.80
2018-12-18T14:12:32.072Z,8.73
2018-12-18T14:14:06.988Z,11.43
2018-12-18T14:15:41.831Z,9.00
2018-12-18T14:17:17.243Z,6.57
2018-12-18T14:18:52.679Z,9.23
2018-12-18T14:20:27.738Z,12.63
2018-12-18T14:22:02.754Z,11.50
2018-12-18T14:23:38.016Z,11.13
2018-12-18T14:25:14.034Z,9.37
2018-12-18T14:26:48.979Z,10.30
2018-12-18T14:28:24.013Z,10.37
2018-12-18T14:29:58.934Z,8.33
2018-12-18T14:31:34.006Z,10.00
2018-12-18T14:33:10.292Z,6.83
2018-12-18T14:34:45.201Z,7.03
2018-12-18T14:36:20.247Z,6.43
2018-12-18T14:37:55.216Z,12.37
2018-12-18T14:39:30.152Z,10.17
2018-12-18T14:41:05.273Z,11.07
2018-12-18T14:42:40.157Z,9.83
2018-12-18T14:44:15.273Z,11.37
2018-12-18T14:45:50.828Z,10.17
2018-12-18T14:47:26.089Z,11.67
2018-12-18T14:49:01.341Z,8.57
2018-12-18T14:50:37.987Z,9.73
2018-12-18T14:52:13.802Z,8.97
2018-12-18T14:53:49.295Z,7.07
2018-12-18T14:55:24.506Z,9.23
2018-12-18T14:56:59.485Z,9.80
2018-12-18T14:58:34.399Z,11.57
2018-12-18T15:00:09.849Z,8.63
2018-12-18T15:01:45.187Z,11.90
2018-12-18T15:03:20.966Z,15.33
2018-12-18T15:04:56.118Z,8.23
2018-12-18T15:06:31.331Z,9.50
2018-12-18T15:08:06.475Z,9.10
2018-12-18T15:09:41.479Z,9.53
2018-12-18T15:11:17.664Z,12.27
2018-12-18T15:12:53.983Z,12.07
2018-12-18T15:14:29.077Z,9.83
2018-12-18T15:16:04.174Z,11.93
2018-12-18T15:17:41.181Z,11.50
2018-12-18T15:19:18.213Z,12.17
2018-12-18T15:20:53.974Z,10.80
2018-12-18T15:22:29.794Z,13.53
2018-12-18T15:24:05.513Z,12.13
2018-12-18T15:25:40.447Z,14.20
2018-12-18T15:27:16.907Z,13.10
2018-12-18T15:28:52.847Z,17.37
2018-12-18T15:30:28.072Z,10.27
2018-12-18T15:32:03.496Z,12.50
2018-12-18T15:33:38.815Z,10.43
2018-12-18T15:35:14.002Z,9.80
2018-12-18T15:36:49.191Z,12.10
2018-12-18T15:38:24.255Z,14.27
2018-12-18T15:39:59.149Z,12.10
2018-12-18T15:41:34.372Z,12.17
2018-12-18T15:43:09.385Z,14.53
2018-12-18T15:44:45.397Z,11.73
2018-12-18T15:46:20.677Z,14.33
2018-12-18T15:47:59.103Z,10.43
2018-12-18T15:49:34.273Z,10.43
2018-12-18T15:51:09.859Z,9.77
2018-12-18T15:52:44.861Z,12.37
2018-12-18T15:54:20.467Z,12.23
2018-12-18T15:55:55.499Z,13.80
2018-12-18T15:57:30.503Z,10.83
2018-12-18T15:59:05.836Z,9.73
2018-12-18T16:00:41.491Z,10.53
2018-12-18T16:02:16.460Z,11.43
2018-12-18T16:03:51.333Z,8.47
2018-12-18T16:05:26.499Z,10.53
2018-12-18T16:07:01.628Z,10.53
2018-12-18T16:08:36.827Z,6.80
2018-12-18T16:10:11.984Z,8.07
2018-12-18T16:11:47.263Z,7.77
2018-12-18T16:13:22.152Z,10.00
2018-12-18T16:14:57.788Z,9.80
2018-12-18T16:16:32.856Z,10.80
2018-12-18T16:18:07.785Z,10.00
2018-12-18T16:19:43.011Z,8.17
2018-12-18T16:21:20.246Z,8.33
2018-12-18T16:22:55.213Z,6.90
2018-12-18T16:24:30.750Z,8.80
2018-12-18T16:26:06.681Z,7.43
2018-12-18T16:27:41.625Z,9.40
2018-12-18T16:29:17.848Z,11.93
2018-12-18T16:30:52.752Z,6.70
2018-12-18T16:32:27.669Z,9.10
2018-12-18T16:34:03.270Z,8.03
2018-12-18T16:35:45.951Z,8.13
2018-12-18T16:37:22.806Z,8.80
2018-12-18T16:38:53.732Z,8.47
2018-12-18T16:40:28.989Z,8.53
2018-12-18T16:42:04.778Z,9.97
2018-12-18T16:43:39.719Z,8.33
2018-12-18T16:45:15.524Z,7.97
2018-12-18T16:46:50.595Z,10.10
2018-12-18T16:48:25.695Z,8.60
2018-12-18T16:50:01.162Z,8.37
2018-12-18T16:51:36.905Z,7.70
2018-12-18T16:53:12.395Z,9.33
2018-12-18T16:54:47.433Z,10.50
2018-12-18T16:56:22.397Z,9.77
2018-12-18T16:57:57.445Z,7.87
2018-12-18T16:59:33.539Z,7.97
2018-12-18T17:01:09.420Z,8.50
2018-12-18T17:02:46.282Z,8.97
2018-12-18T17:04:22.552Z,10.93
2018-12-18T17:05:57.769Z,8.83
2018-12-18T17:07:32.876Z,13.40
2018-12-18T17:09:09.206Z,7.73
2018-12-18T17:10:45.776Z,11.53
2018-12-18T17:12:20.781Z,15.73
2018-12-18T17:13:55.799Z,10.73
2018-12-18T17:15:30.865Z,12.97
2018-12-18T17:17:07.070Z,12.37
2018-12-18T17:18:42.246Z,11.53
2018-12-18T17:20:17.712Z,12.33
2018-12-18T17:21:52.962Z,14.17
2018-12-18T17:23:27.901Z,15.73
2018-12-18T17:25:03.429Z,16.80
2018-12-18T17:26:38.629Z,14.97
2018-12-18T17:28:14.604Z,18.00
2018-12-18T17:29:49.738Z,17.70
2018-12-18T17:31:25.525Z,21.13
2018-12-18T17:33:00.516Z,17.87
2018-12-18T17:34:35.883Z,18.17
2018-12-18T17:36:11.181Z,21.97
2018-12-18T17:37:47.046Z,23.13
2018-12-18T17:39:22.076Z,21.80
2018-12-18T17:40:58.530Z,23.20
2018-12-18T17:42:33.746Z,22.60
2018-12-18T17:44:10.160Z,22.57
2018-12-18T17:45:45.437Z,21.20
2018-12-18T17:47:23.057Z,24.20
2018-12-18T17:48:58.059Z,29.70
2018-12-18T17:50:33.340Z,22.77
2018-12-18T17:52:09.030Z,25.87
2018-12-18T17:53:44.655Z,26.60
2018-12-18T17:55:19.953Z,25.13
2018-12-18T17:56:54.965Z,27.20
2018-12-18T17:58:29.967Z,27.67
2018-12-18T18:00:05.630Z,29.13
2018-12-18T18:01:40.622Z,27.97
2018-12-18T18:03:15.642Z,31.03
2018-12-18T18:04:50.524Z,25.90
2018-12-18T18:06:25.677Z,27.13
2018-12-18T18:08:00.775Z,29.47
2018-12-18T18:09:38.000Z,29.43
2018-12-18T18:11:14.491Z,30.00
2018-12-18T18:12:52.880Z,25.47
2018-12-18T18:14:28.021Z,28.77
2018-12-18T18:16:03.071Z,26.90
2018-12-18T18:17:39.167Z,27.53
2018-12-18T18:19:18.811Z,27.70
2018-12-18T18:20:54.207Z,25.23
2018-12-18T18:22:36.533Z,25.37
2018-12-18T18:24:13.149Z,27.93
2018-12-18T18:25:50.579Z,27.37
2018-12-18T18:27:25.831Z,28.93
2018-12-18T18:29:02.556Z,32.27
2018-12-18T18:30:38.851Z,25.63
2018-12-18T18:32:14.061Z,29.57
2018-12-18T18:33:50.300Z,29.47
2018-12-18T18:35:26.522Z,23.20
2018-12-18T18:37:02.359Z,26.33
2018-12-18T18:38:37.370Z,27.67
2018-12-18T18:40:13.304Z,26.23
2018-12-18T18:41:48.628Z,22.83
2018-12-18T18:43:23.887Z,24.87
2018-12-18T18:44:59.803Z,27.23
2018-12-18T18:46:34.826Z,23.63
2018-12-18T18:48:12.121Z,27.23
2018-12-18T18:49:47.689Z,27.07
2018-12-18T18:51:23.001Z,23.90
2018-12-18T18:52:58.929Z,25.33
2018-12-18T18:54:34.833Z,25.67
2018-12-18T18:56:11.252Z,24.40
2018-12-18T18:57:46.386Z,29.07
2018-12-18T18:59:21.284Z,21.70
2018-12-18T19:00:57.710Z,22.97
2018-12-18T19:02:32.975Z,27.37
2018-12-18T19:04:08.245Z,25.10
2018-12-18T19:05:43.347Z,24.97
2018-12-18T19:07:18.601Z,27.80
2018-12-18T19:08:53.790Z,25.53
2018-12-18T19:10:29.063Z,23.47
2018-12-18T19:12:04.236Z,23.47
2018-12-18T19:13:40.568Z,32.73
2018-12-18T19:15:16.392Z,23.57
2018-12-18T19:16:52.350Z,22.50
2018-12-18T19:18:27.739Z,25.93
2018-12-18T19:20:03.583Z,24.07
2018-12-18T19:21:40.778Z,22.30
2018-12-18T19:23:16.550Z,26.27
2018-12-18T19:24:52.610Z,26.50
2018-12-18T19:26:27.666Z,27.63
2018-12-18T19:28:04.722Z,28.23
2018-12-18T19:29:39.605Z,25.20
2018-12-18T19:33:04.096Z,24.70
2018-12-18T19:34:39.561Z,23.07
2018-12-18T19:36:14.561Z,23.10
2018-12-18T19:37:49.818Z,27.60
2018-12-18T19:39:25.261Z,22.20
2018-12-18T19:41:00.809Z,27.13
2018-12-18T19:42:35.812Z,24.63
2018-12-18T19:44:10.801Z,24.70
2018-12-18T19:45:46.087Z,27.17
2018-12-18T19:47:21.553Z,23.93
2018-12-18T19:48:56.499Z,27.13
2018-12-18T19:50:31.484Z,25.77
2018-12-18T19:52:06.616Z,24.43
2018-12-18T19:53:41.864Z,24.60
2018-12-18T19:55:16.847Z,26.70
2018-12-18T19:56:52.533Z,25.67
2018-12-18T19:58:27.613Z,24.10
2018-12-18T20:00:04.582Z,21.70
2018-12-18T20:01:41.902Z,21.90
2018-12-18T20:03:17.325Z,23.67
2018-12-18T20:04:53.553Z,24.07
2018-12-18T20:06:31.437Z,24.27
2018-12-18T20:08:10.190Z,24.33
2018-12-18T20:09:45.409Z,23.47
2018-12-18T20:11:20.583Z,23.83
2018-12-18T20:12:59.464Z,24.27
2018-12-18T20:14:39.322Z,23.17
2018-12-18T20:16:14.937Z,25.37
2018-12-18T20:17:50.185Z,23.50
2018-12-18T20:19:27.192Z,24.97
2018-12-18T20:21:05.026Z,27.00
2018-12-18T20:22:41.315Z,28.43
2018-12-18T20:24:17.729Z,24.63
2018-12-18T20:25:53.604Z,21.47
2018-12-18T20:27:29.196Z,23.47
2018-12-18T20:29:04.734Z,23.90
2018-12-18T20:30:39.745Z,26.50
2018-12-18T20:32:14.889Z,23.60
2018-12-18T20:33:51.197Z,23.80
2018-12-18T20:35:26.410Z,24.07
2018-12-18T20:37:02.600Z,24.10
2018-12-18T20:38:38.130Z,24.00
2018-12-18T20:40:14.109Z,25.37
2018-12-18T20:41:49.259Z,25.73
2018-12-18T20:43:24.343Z,22.40
2018-12-18T20:44:59.948Z,23.97
2018-12-18T20:46:35.005Z,24.80
2018-12-18T20:48:13.546Z,22.93
2018-12-18T20:49:49.669Z,24.67
2018-12-18T20:51:26.290Z,27.13
2018-12-18T20:53:03.281Z,26.47
2018-12-18T20:54:39.535Z,29.30
2018-12-18T20:56:15.630Z,24.43
2018-12-18T20:57:54.326Z,25.23
2018-12-18T20:59:30.042Z,25.10